Spade, Nebraska
Current Conditions -  °F | °C
As of 10:35 AM on Saturday 22 Nov 2014 (Local Time) from KYKN Reporting Station
Clear Clear  
Wind Chill: 35°   Ceiling: Unl
Heat Index: 41°   Visibility: 10mi
Dew Point: 32°   Wind: 9mph
Humidity: 70%   Direction: 140°SE
Pressure: 29.7"   Gusts: NA
Location:  42.6136°N, 97.8951°W
Report Text: KYKN 221635Z AUTO 14008KT 10SM CLR 05/00 A2970 RMK AO1
Loading
Personal Weather Stations






























Interactive Weather Map New forecast layout! Learn more

10-Day Weather Forecast

Advertisements
Track Severe Weather on mobile